sensor_id;sensor_type;location;lat;lon;timestamp;P1;durP1;ratioP1;P2;durP2;ratioP2
54145;SDS011;65909;49.422;7.738;2023-04-06T00:00:53;10.85;;;5.50;;
54145;SDS011;65909;49.422;7.738;2023-04-06T00:03:18;7.28;;;5.20;;
54145;SDS011;65909;49.422;7.738;2023-04-06T00:05:44;9.20;;;6.35;;
54145;SDS011;65909;49.422;7.738;2023-04-06T00:08:10;8.85;;;5.80;;
54145;SDS011;65909;49.422;7.738;2023-04-06T00:10:36;7.80;;;5.97;;
54145;SDS011;65909;49.422;7.738;2023-04-06T00:13:01;8.25;;;6.05;;
54145;SDS011;65909;49.422;7.738;2023-04-06T00:15:27;9.52;;;6.60;;
54145;SDS011;65909;49.422;7.738;2023-04-06T00:17:52;12.35;;;6.85;;
54145;SDS011;65909;49.422;7.738;2023-04-06T00:20:18;10.40;;;6.88;;
54145;SDS011;65909;49.422;7.738;2023-04-06T00:22:44;7.88;;;6.60;;
54145;SDS011;65909;49.422;7.738;2023-04-06T00:25:10;11.13;;;6.65;;
54145;SDS011;65909;49.422;7.738;2023-04-06T00:27:36;10.45;;;6.72;;
54145;SDS011;65909;49.422;7.738;2023-04-06T00:30:03;9.07;;;5.90;;
54145;SDS011;65909;49.422;7.738;2023-04-06T00:32:29;11.23;;;6.22;;
54145;SDS011;65909;49.422;7.738;2023-04-06T00:34:55;9.88;;;6.28;;
54145;SDS011;65909;49.422;7.738;2023-04-06T00:37:21;9.63;;;7.43;;
54145;SDS011;65909;49.422;7.738;2023-04-06T00:39:46;11.13;;;6.50;;
54145;SDS011;65909;49.422;7.738;2023-04-06T00:42:12;10.40;;;6.03;;
54145;SDS011;65909;49.422;7.738;2023-04-06T00:44:39;10.30;;;6.75;;
54145;SDS011;65909;49.422;7.738;2023-04-06T00:47:07;9.25;;;6.75;;
54145;SDS011;65909;49.422;7.738;2023-04-06T00:49:32;9.23;;;7.18;;
54145;SDS011;65909;49.422;7.738;2023-04-06T00:51:58;10.20;;;7.13;;
54145;SDS011;65909;49.422;7.738;2023-04-06T00:54:24;11.30;;;7.32;;
54145;SDS011;65909;49.422;7.738;2023-04-06T00:56:49;11.63;;;7.25;;
54145;SDS011;65909;49.422;7.738;2023-04-06T00:59:15;7.75;;;6.32;;
54145;SDS011;65909;49.422;7.738;2023-04-06T01:01:40;7.68;;;5.78;;
54145;SDS011;65909;49.422;7.738;2023-04-06T01:04:06;9.18;;;5.88;;
54145;SDS011;65909;49.422;7.738;2023-04-06T01:06:31;8.43;;;6.03;;
54145;SDS011;65909;49.422;7.738;2023-04-06T01:08:57;7.95;;;6.43;;
54145;SDS011;65909;49.422;7.738;2023-04-06T01:11:22;10.52;;;6.18;;
54145;SDS011;65909;49.422;7.738;2023-04-06T01:13:48;8.65;;;5.78;;
54145;SDS011;65909;49.422;7.738;2023-04-06T01:16:13;9.75;;;5.38;;
54145;SDS011;65909;49.422;7.738;2023-04-06T01:18:39;11.85;;;5.28;;
54145;SDS011;65909;49.422;7.738;2023-04-06T01:21:05;9.05;;;5.68;;
54145;SDS011;65909;49.422;7.738;2023-04-06T01:23:33;8.70;;;5.88;;
54145;SDS011;65909;49.422;7.738;2023-04-06T01:25:58;11.18;;;5.82;;
54145;SDS011;65909;49.422;7.738;2023-04-06T01:28:24;9.02;;;6.13;;
54145;SDS011;65909;49.422;7.738;2023-04-06T01:30:49;8.07;;;5.55;;
54145;SDS011;65909;49.422;7.738;2023-04-06T01:33:15;8.38;;;5.80;;
54145;SDS011;65909;49.422;7.738;2023-04-06T01:35:40;8.55;;;5.70;;
54145;SDS011;65909;49.422;7.738;2023-04-06T01:38:05;7.47;;;5.72;;
54145;SDS011;65909;49.422;7.738;2023-04-06T01:40:31;9.45;;;6.00;;
54145;SDS011;65909;49.422;7.738;2023-04-06T01:42:56;8.93;;;6.03;;
54145;SDS011;65909;49.422;7.738;2023-04-06T01:45:22;7.30;;;6.18;;
54145;SDS011;65909;49.422;7.738;2023-04-06T01:47:47;10.35;;;5.90;;
54145;SDS011;65909;49.422;7.738;2023-04-06T01:50:12;8.43;;;5.85;;
54145;SDS011;65909;49.422;7.738;2023-04-06T01:52:38;11.55;;;6.63;;
54145;SDS011;65909;49.422;7.738;2023-04-06T01:55:03;8.10;;;5.55;;
54145;SDS011;65909;49.422;7.738;2023-04-06T01:57:29;8.40;;;5.78;;
54145;SDS011;65909;49.422;7.738;2023-04-06T01:59:54;8.60;;;5.80;;
54145;SDS011;65909;49.422;7.738;2023-04-06T02:02:19;7.43;;;5.78;;
54145;SDS011;65909;49.422;7.738;2023-04-06T02:04:45;8.05;;;6.20;;
54145;SDS011;65909;49.422;7.738;2023-04-06T02:07:10;7.65;;;5.38;;
54145;SDS011;65909;49.422;7.738;2023-04-06T02:09:36;8.73;;;6.63;;
54145;SDS011;65909;49.422;7.738;2023-04-06T02:12:01;8.77;;;6.43;;
54145;SDS011;65909;49.422;7.738;2023-04-06T02:14:27;11.32;;;6.50;;
54145;SDS011;65909;49.422;7.738;2023-04-06T02:16:52;8.80;;;6.05;;
54145;SDS011;65909;49.422;7.738;2023-04-06T02:19:18;9.65;;;6.40;;
54145;SDS011;65909;49.422;7.738;2023-04-06T02:21:43;10.52;;;6.43;;
54145;SDS011;65909;49.422;7.738;2023-04-06T02:24:09;10.27;;;6.75;;
54145;SDS011;65909;49.422;7.738;2023-04-06T02:26:34;10.27;;;6.82;;
54145;SDS011;65909;49.422;7.738;2023-04-06T02:28:59;11.82;;;6.32;;
54145;SDS011;65909;49.422;7.738;2023-04-06T02:31:26;9.38;;;6.68;;
54145;SDS011;65909;49.422;7.738;2023-04-06T02:33:52;9.68;;;6.90;;
54145;SDS011;65909;49.422;7.738;2023-04-06T02:36:17;12.55;;;6.68;;
54145;SDS011;65909;49.422;7.738;2023-04-06T02:38:43;11.00;;;7.18;;
54145;SDS011;65909;49.422;7.738;2023-04-06T02:41:08;10.18;;;6.63;;
54145;SDS011;65909;49.422;7.738;2023-04-06T02:43:34;9.30;;;6.15;;
54145;SDS011;65909;49.422;7.738;2023-04-06T02:45:59;11.65;;;6.70;;
54145;SDS011;65909;49.422;7.738;2023-04-06T02:48:25;9.73;;;6.93;;
54145;SDS011;65909;49.422;7.738;2023-04-06T02:50:50;10.15;;;7.00;;
54145;SDS011;65909;49.422;7.738;2023-04-06T02:53:16;7.78;;;5.53;;
54145;SDS011;65909;49.422;7.738;2023-04-06T02:55:41;11.02;;;7.18;;
54145;SDS011;65909;49.422;7.738;2023-04-06T02:58:06;13.52;;;6.38;;
54145;SDS011;65909;49.422;7.738;2023-04-06T03:00:32;9.35;;;6.72;;
54145;SDS011;65909;49.422;7.738;2023-04-06T03:02:57;10.43;;;6.25;;
54145;SDS011;65909;49.422;7.738;2023-04-06T03:05:23;13.05;;;6.75;;
54145;SDS011;65909;49.422;7.738;2023-04-06T03:07:48;7.72;;;6.60;;
54145;SDS011;65909;49.422;7.738;2023-04-06T03:10:13;10.02;;;6.43;;
54145;SDS011;65909;49.422;7.738;2023-04-06T03:12:39;11.80;;;6.50;;
54145;SDS011;65909;49.422;7.738;2023-04-06T03:15:06;9.30;;;6.32;;
54145;SDS011;65909;49.422;7.738;2023-04-06T03:17:32;12.65;;;5.75;;
54145;SDS011;65909;49.422;7.738;2023-04-06T03:19:57;8.30;;;5.95;;
54145;SDS011;65909;49.422;7.738;2023-04-06T03:22:23;9.43;;;6.57;;
54145;SDS011;65909;49.422;7.738;2023-04-06T03:24:48;7.68;;;6.32;;
54145;SDS011;65909;49.422;7.738;2023-04-06T03:27:14;8.88;;;6.07;;
54145;SDS011;65909;49.422;7.738;2023-04-06T03:29:39;9.05;;;5.82;;
54145;SDS011;65909;49.422;7.738;2023-04-06T03:32:05;11.35;;;6.00;;
54145;SDS011;65909;49.422;7.738;2023-04-06T03:34:30;7.88;;;5.47;;
54145;SDS011;65909;49.422;7.738;2023-04-06T03:36:56;6.93;;;5.65;;
54145;SDS011;65909;49.422;7.738;2023-04-06T03:39:21;10.35;;;6.88;;
54145;SDS011;65909;49.422;7.738;2023-04-06T03:41:46;8.75;;;6.18;;
54145;SDS011;65909;49.422;7.738;2023-04-06T03:44:12;9.15;;;5.78;;
54145;SDS011;65909;49.422;7.738;2023-04-06T03:46:37;7.57;;;5.55;;
54145;SDS011;65909;49.422;7.738;2023-04-06T03:49:03;12.40;;;6.30;;
54145;SDS011;65909;49.422;7.738;2023-04-06T03:51:28;10.80;;;6.22;;
54145;SDS011;65909;49.422;7.738;2023-04-06T03:53:54;8.35;;;5.75;;
54145;SDS011;65909;49.422;7.738;2023-04-06T03:56:19;8.60;;;6.43;;
54145;SDS011;65909;49.422;7.738;2023-04-06T03:58:45;8.93;;;5.45;;
54145;SDS011;65909;49.422;7.738;2023-04-06T04:01:14;9.18;;;5.88;;
54145;SDS011;65909;49.422;7.738;2023-04-06T04:03:39;7.15;;;4.68;;
54145;SDS011;65909;49.422;7.738;2023-04-06T04:06:05;8.82;;;5.68;;
54145;SDS011;65909;49.422;7.738;2023-04-06T04:08:30;11.63;;;5.75;;
54145;SDS011;65909;49.422;7.738;2023-04-06T04:10:56;8.52;;;5.78;;
54145;SDS011;65909;49.422;7.738;2023-04-06T04:13:21;9.65;;;5.97;;
54145;SDS011;65909;49.422;7.738;2023-04-06T04:15:46;9.15;;;5.80;;
54145;SDS011;65909;49.422;7.738;2023-04-06T04:18:12;7.80;;;5.57;;
54145;SDS011;65909;49.422;7.738;2023-04-06T04:20:38;9.80;;;5.32;;
54145;SDS011;65909;49.422;7.738;2023-04-06T04:23:03;9.15;;;5.57;;
54145;SDS011;65909;49.422;7.738;2023-04-06T04:25:29;7.38;;;5.32;;
54145;SDS011;65909;49.422;7.738;2023-04-06T04:27:54;9.93;;;5.88;;
54145;SDS011;65909;49.422;7.738;2023-04-06T04:30:20;7.85;;;5.68;;
54145;SDS011;65909;49.422;7.738;2023-04-06T04:32:46;7.15;;;5.20;;
54145;SDS011;65909;49.422;7.738;2023-04-06T04:35:11;8.75;;;5.40;;
54145;SDS011;65909;49.422;7.738;2023-04-06T04:37:38;10.48;;;5.43;;
54145;SDS011;65909;49.422;7.738;2023-04-06T04:40:04;12.07;;;5.85;;
54145;SDS011;65909;49.422;7.738;2023-04-06T04:42:30;7.72;;;5.63;;
54145;SDS011;65909;49.422;7.738;2023-04-06T04:44:56;9.02;;;6.38;;
54145;SDS011;65909;49.422;7.738;2023-04-06T04:47:21;7.55;;;5.60;;
54145;SDS011;65909;49.422;7.738;2023-04-06T04:49:46;8.25;;;5.38;;
54145;SDS011;65909;49.422;7.738;2023-04-06T04:52:12;9.70;;;6.30;;
54145;SDS011;65909;49.422;7.738;2023-04-06T04:54:37;10.30;;;5.45;;
54145;SDS011;65909;49.422;7.738;2023-04-06T04:57:03;9.45;;;5.70;;
54145;SDS011;65909;49.422;7.738;2023-04-06T04:59:29;8.55;;;5.93;;
54145;SDS011;65909;49.422;7.738;2023-04-06T05:01:54;10.32;;;6.05;;
54145;SDS011;65909;49.422;7.738;2023-04-06T05:04:20;7.72;;;5.30;;
54145;SDS011;65909;49.422;7.738;2023-04-06T05:06:45;8.75;;;5.85;;
54145;SDS011;65909;49.422;7.738;2023-04-06T05:09:11;13.25;;;6.57;;
54145;SDS011;65909;49.422;7.738;2023-04-06T05:11:36;7.65;;;6.18;;
54145;SDS011;65909;49.422;7.738;2023-04-06T05:14:01;9.60;;;6.30;;
54145;SDS011;65909;49.422;7.738;2023-04-06T05:16:27;21.98;;;11.57;;
54145;SDS011;65909;49.422;7.738;2023-04-06T05:18:53;26.55;;;13.48;;
54145;SDS011;65909;49.422;7.738;2023-04-06T05:21:18;13.55;;;7.90;;
54145;SDS011;65909;49.422;7.738;2023-04-06T05:23:44;15.73;;;9.52;;
54145;SDS011;65909;49.422;7.738;2023-04-06T05:26:09;12.73;;;8.98;;
54145;SDS011;65909;49.422;7.738;2023-04-06T05:28:34;11.32;;;7.00;;
54145;SDS011;65909;49.422;7.738;2023-04-06T05:31:00;12.32;;;6.72;;
54145;SDS011;65909;49.422;7.738;2023-04-06T05:33:26;7.40;;;5.57;;
54145;SDS011;65909;49.422;7.738;2023-04-06T05:35:52;8.95;;;6.32;;
54145;SDS011;65909;49.422;7.738;2023-04-06T05:38:17;9.25;;;6.28;;
54145;SDS011;65909;49.422;7.738;2023-04-06T05:40:43;8.75;;;6.05;;
54145;SDS011;65909;49.422;7.738;2023-04-06T05:43:08;8.75;;;5.95;;
54145;SDS011;65909;49.422;7.738;2023-04-06T05:45:33;9.63;;;6.68;;
54145;SDS011;65909;49.422;7.738;2023-04-06T05:48:00;11.30;;;5.88;;
54145;SDS011;65909;49.422;7.738;2023-04-06T05:50:26;8.98;;;6.03;;
54145;SDS011;65909;49.422;7.738;2023-04-06T05:52:51;8.85;;;5.90;;
54145;SDS011;65909;49.422;7.738;2023-04-06T05:55:17;8.95;;;6.25;;
54145;SDS011;65909;49.422;7.738;2023-04-06T05:57:42;12.10;;;6.45;;
54145;SDS011;65909;49.422;7.738;2023-04-06T06:00:08;8.32;;;5.70;;
54145;SDS011;65909;49.422;7.738;2023-04-06T06:02:34;9.73;;;6.28;;
54145;SDS011;65909;49.422;7.738;2023-04-06T06:05:00;10.70;;;7.07;;
54145;SDS011;65909;49.422;7.738;2023-04-06T06:07:25;11.85;;;6.90;;
54145;SDS011;65909;49.422;7.738;2023-04-06T06:09:51;13.52;;;6.78;;
54145;SDS011;65909;49.422;7.738;2023-04-06T06:12:16;10.27;;;6.32;;
54145;SDS011;65909;49.422;7.738;2023-04-06T06:14:42;8.40;;;6.40;;
54145;SDS011;65909;49.422;7.738;2023-04-06T06:17:07;8.05;;;6.82;;
54145;SDS011;65909;49.422;7.738;2023-04-06T06:19:33;10.13;;;6.97;;
54145;SDS011;65909;49.422;7.738;2023-04-06T06:21:58;10.20;;;6.82;;
54145;SDS011;65909;49.422;7.738;2023-04-06T06:24:26;9.60;;;6.68;;
54145;SDS011;65909;49.422;7.738;2023-04-06T06:26:52;9.55;;;6.55;;
54145;SDS011;65909;49.422;7.738;2023-04-06T06:29:18;10.48;;;6.43;;
54145;SDS011;65909;49.422;7.738;2023-04-06T06:31:43;9.52;;;6.22;;
54145;SDS011;65909;49.422;7.738;2023-04-06T06:34:08;9.32;;;6.53;;
54145;SDS011;65909;49.422;7.738;2023-04-06T06:36:35;11.80;;;7.07;;
54145;SDS011;65909;49.422;7.738;2023-04-06T06:39:00;11.27;;;6.88;;
54145;SDS011;65909;49.422;7.738;2023-04-06T06:41:28;9.15;;;6.75;;
54145;SDS011;65909;49.422;7.738;2023-04-06T06:43:53;12.52;;;7.25;;
54145;SDS011;65909;49.422;7.738;2023-04-06T06:46:19;8.35;;;6.57;;
54145;SDS011;65909;49.422;7.738;2023-04-06T06:48:45;7.90;;;5.93;;
54145;SDS011;65909;49.422;7.738;2023-04-06T06:51:10;12.63;;;6.95;;
54145;SDS011;65909;49.422;7.738;2023-04-06T06:53:36;9.32;;;6.38;;
54145;SDS011;65909;49.422;7.738;2023-04-06T06:56:02;8.82;;;6.82;;
54145;SDS011;65909;49.422;7.738;2023-04-06T06:58:27;9.98;;;6.68;;
54145;SDS011;65909;49.422;7.738;2023-04-06T07:00:59;9.77;;;7.20;;
54145;SDS011;65909;49.422;7.738;2023-04-06T07:03:24;10.23;;;6.03;;
54145;SDS011;65909;49.422;7.738;2023-04-06T07:05:50;10.18;;;5.95;;
54145;SDS011;65909;49.422;7.738;2023-04-06T07:08:22;10.75;;;7.15;;
54145;SDS011;65909;49.422;7.738;2023-04-06T07:10:49;8.85;;;6.60;;
54145;SDS011;65909;49.422;7.738;2023-04-06T07:13:17;12.13;;;7.55;;
54145;SDS011;65909;49.422;7.738;2023-04-06T07:15:46;11.10;;;6.93;;
54145;SDS011;65909;49.422;7.738;2023-04-06T07:18:12;10.52;;;7.07;;
54145;SDS011;65909;49.422;7.738;2023-04-06T07:20:38;8.48;;;6.32;;
54145;SDS011;65909;49.422;7.738;2023-04-06T07:23:03;11.25;;;6.82;;
54145;SDS011;65909;49.422;7.738;2023-04-06T07:25:29;8.23;;;6.70;;
54145;SDS011;65909;49.422;7.738;2023-04-06T07:27:54;9.15;;;6.90;;
54145;SDS011;65909;49.422;7.738;2023-04-06T07:30:20;10.77;;;6.90;;
54145;SDS011;65909;49.422;7.738;2023-04-06T07:32:46;9.73;;;7.20;;
54145;SDS011;65909;49.422;7.738;2023-04-06T07:35:12;9.63;;;7.00;;
54145;SDS011;65909;49.422;7.738;2023-04-06T07:37:37;11.95;;;8.10;;
54145;SDS011;65909;49.422;7.738;2023-04-06T07:40:03;9.18;;;6.60;;
54145;SDS011;65909;49.422;7.738;2023-04-06T07:42:29;8.98;;;6.97;;
54145;SDS011;65909;49.422;7.738;2023-04-06T07:44:54;11.63;;;7.25;;
54145;SDS011;65909;49.422;7.738;2023-04-06T07:47:19;10.00;;;6.72;;
54145;SDS011;65909;49.422;7.738;2023-04-06T07:49:46;9.32;;;6.82;;
54145;SDS011;65909;49.422;7.738;2023-04-06T07:52:11;9.18;;;7.30;;
54145;SDS011;65909;49.422;7.738;2023-04-06T07:54:36;8.20;;;7.25;;
54145;SDS011;65909;49.422;7.738;2023-04-06T07:57:02;8.50;;;6.90;;
54145;SDS011;65909;49.422;7.738;2023-04-06T07:59:27;8.98;;;7.05;;
54145;SDS011;65909;49.422;7.738;2023-04-06T08:01:52;7.93;;;7.13;;
54145;SDS011;65909;49.422;7.738;2023-04-06T08:04:18;8.80;;;7.05;;
54145;SDS011;65909;49.422;7.738;2023-04-06T08:06:43;8.68;;;7.70;;
54145;SDS011;65909;49.422;7.738;2023-04-06T08:09:09;9.80;;;7.45;;
54145;SDS011;65909;49.422;7.738;2023-04-06T08:11:34;13.55;;;9.38;;
54145;SDS011;65909;49.422;7.738;2023-04-06T08:14:00;10.73;;;7.55;;
54145;SDS011;65909;49.422;7.738;2023-04-06T08:16:25;10.73;;;7.85;;
54145;SDS011;65909;49.422;7.738;2023-04-06T08:18:50;9.05;;;7.63;;
54145;SDS011;65909;49.422;7.738;2023-04-06T08:21:16;10.13;;;7.53;;
54145;SDS011;65909;49.422;7.738;2023-04-06T08:23:41;14.35;;;8.80;;
54145;SDS011;65909;49.422;7.738;2023-04-06T08:26:07;13.00;;;8.50;;
54145;SDS011;65909;49.422;7.738;2023-04-06T08:28:32;11.70;;;9.38;;
54145;SDS011;65909;49.422;7.738;2023-04-06T08:30:59;14.30;;;9.38;;
54145;SDS011;65909;49.422;7.738;2023-04-06T08:33:33;12.15;;;9.85;;
54145;SDS011;65909;49.422;7.738;2023-04-06T08:36:13;13.68;;;9.40;;
54145;SDS011;65909;49.422;7.738;2023-04-06T08:38:40;12.48;;;9.30;;
54145;SDS011;65909;49.422;7.738;2023-04-06T08:41:12;12.00;;;9.35;;
54145;SDS011;65909;49.422;7.738;2023-04-06T08:44:12;11.45;;;9.13;;
54145;SDS011;65909;49.422;7.738;2023-04-06T08:46:30;14.35;;;9.10;;
54145;SDS011;65909;49.422;7.738;2023-04-06T08:49:00;11.85;;;9.10;;
54145;SDS011;65909;49.422;7.738;2023-04-06T08:51:28;12.00;;;9.35;;
54145;SDS011;65909;49.422;7.738;2023-04-06T08:53:55;14.07;;;8.52;;
54145;SDS011;65909;49.422;7.738;2023-04-06T08:56:23;12.43;;;8.70;;
54145;SDS011;65909;49.422;7.738;2023-04-06T08:58:50;11.73;;;9.20;;
54145;SDS011;65909;49.422;7.738;2023-04-06T09:01:17;13.05;;;8.68;;
54145;SDS011;65909;49.422;7.738;2023-04-06T09:03:45;15.25;;;8.63;;
54145;SDS011;65909;49.422;7.738;2023-04-06T09:06:11;13.07;;;9.02;;
54145;SDS011;65909;49.422;7.738;2023-04-06T09:08:39;12.20;;;9.00;;
54145;SDS011;65909;49.422;7.738;2023-04-06T09:11:05;11.15;;;9.00;;
54145;SDS011;65909;49.422;7.738;2023-04-06T09:13:31;12.70;;;8.70;;
54145;SDS011;65909;49.422;7.738;2023-04-06T09:16:08;11.20;;;8.70;;
54145;SDS011;65909;49.422;7.738;2023-04-06T09:18:34;10.73;;;8.23;;
54145;SDS011;65909;49.422;7.738;2023-04-06T09:21:00;12.30;;;8.77;;
54145;SDS011;65909;49.422;7.738;2023-04-06T09:23:27;12.07;;;8.85;;
54145;SDS011;65909;49.422;7.738;2023-04-06T09:26:02;12.18;;;8.32;;
54145;SDS011;65909;49.422;7.738;2023-04-06T09:31:10;14.10;;;9.07;;
54145;SDS011;65909;49.422;7.738;2023-04-06T09:33:37;12.98;;;8.25;;
54145;SDS011;65909;49.422;7.738;2023-04-06T09:36:04;13.82;;;8.65;;
54145;SDS011;65909;49.422;7.738;2023-04-06T09:38:31;10.93;;;8.23;;
54145;SDS011;65909;49.422;7.738;2023-04-06T09:40:56;11.05;;;8.27;;
54145;SDS011;65909;49.422;7.738;2023-04-06T09:43:28;11.50;;;8.45;;
54145;SDS011;65909;49.422;7.738;2023-04-06T09:45:55;12.18;;;8.88;;
54145;SDS011;65909;49.422;7.738;2023-04-06T09:48:21;9.30;;;7.80;;
54145;SDS011;65909;49.422;7.738;2023-04-06T09:50:49;12.05;;;7.90;;
54145;SDS011;65909;49.422;7.738;2023-04-06T09:53:19;12.77;;;8.32;;
54145;SDS011;65909;49.422;7.738;2023-04-06T09:55:46;13.13;;;8.10;;
54145;SDS011;65909;49.422;7.738;2023-04-06T09:58:17;14.07;;;8.82;;
54145;SDS011;65909;49.422;7.738;2023-04-06T10:00:47;11.82;;;8.20;;
54145;SDS011;65909;49.422;7.738;2023-04-06T10:06:13;12.55;;;7.50;;
54145;SDS011;65909;49.422;7.738;2023-04-06T10:08:40;15.52;;;7.75;;
54145;SDS011;65909;49.422;7.738;2023-04-06T10:11:08;14.20;;;8.90;;
54145;SDS011;65909;49.422;7.738;2023-04-06T10:13:34;14.07;;;7.90;;
54145;SDS011;65909;49.422;7.738;2023-04-06T10:16:00;11.25;;;8.30;;
54145;SDS011;65909;49.422;7.738;2023-04-06T10:18:28;12.50;;;7.82;;
54145;SDS011;65909;49.422;7.738;2023-04-06T10:21:00;11.05;;;7.68;;
54145;SDS011;65909;49.422;7.738;2023-04-06T10:25:59;11.07;;;8.48;;
54145;SDS011;65909;49.422;7.738;2023-04-06T10:28:29;11.00;;;7.50;;
54145;SDS011;65909;49.422;7.738;2023-04-06T10:31:01;12.95;;;7.82;;
54145;SDS011;65909;49.422;7.738;2023-04-06T10:33:29;13.32;;;8.80;;
54145;SDS011;65909;49.422;7.738;2023-04-06T10:35:55;11.85;;;8.02;;
54145;SDS011;65909;49.422;7.738;2023-04-06T10:38:20;13.43;;;7.75;;
54145;SDS011;65909;49.422;7.738;2023-04-06T10:40:47;10.80;;;8.52;;
54145;SDS011;65909;49.422;7.738;2023-04-06T10:43:20;10.88;;;7.20;;
54145;SDS011;65909;49.422;7.738;2023-04-06T10:45:56;11.57;;;7.68;;
54145;SDS011;65909;49.422;7.738;2023-04-06T10:48:25;14.65;;;8.70;;
54145;SDS011;65909;49.422;7.738;2023-04-06T10:51:06;12.25;;;8.35;;
54145;SDS011;65909;49.422;7.738;2023-04-06T10:53:34;13.25;;;8.30;;
54145;SDS011;65909;49.422;7.738;2023-04-06T10:55:59;11.65;;;7.40;;
54145;SDS011;65909;49.422;7.738;2023-04-06T10:58:26;13.18;;;8.10;;
54145;SDS011;65909;49.422;7.738;2023-04-06T11:00:52;12.98;;;7.10;;
54145;SDS011;65909;49.422;7.738;2023-04-06T11:03:19;13.15;;;8.23;;
54145;SDS011;65909;49.422;7.738;2023-04-06T11:05:45;13.07;;;7.72;;
54145;SDS011;65909;49.422;7.738;2023-04-06T11:11:03;14.93;;;8.50;;
54145;SDS011;65909;49.422;7.738;2023-04-06T11:13:59;14.77;;;8.15;;
54145;SDS011;65909;49.422;7.738;2023-04-06T11:16:25;14.80;;;7.97;;
54145;SDS011;65909;49.422;7.738;2023-04-06T11:19:03;11.68;;;6.32;;
54145;SDS011;65909;49.422;7.738;2023-04-06T11:21:40;12.18;;;7.70;;
54145;SDS011;65909;49.422;7.738;2023-04-06T11:24:12;12.68;;;7.93;;
54145;SDS011;65909;49.422;7.738;2023-04-06T11:26:45;11.20;;;7.95;;
54145;SDS011;65909;49.422;7.738;2023-04-06T11:29:19;12.52;;;7.22;;
54145;SDS011;65909;49.422;7.738;2023-04-06T11:31:49;13.52;;;7.90;;
54145;SDS011;65909;49.422;7.738;2023-04-06T11:34:17;11.48;;;7.38;;
54145;SDS011;65909;49.422;7.738;2023-04-06T11:36:44;16.58;;;8.25;;
54145;SDS011;65909;49.422;7.738;2023-04-06T11:39:11;15.40;;;8.13;;
54145;SDS011;65909;49.422;7.738;2023-04-06T11:41:50;14.50;;;8.13;;
54145;SDS011;65909;49.422;7.738;2023-04-06T11:44:28;12.45;;;7.80;;
54145;SDS011;65909;49.422;7.738;2023-04-06T11:46:53;14.85;;;7.65;;
54145;SDS011;65909;49.422;7.738;2023-04-06T11:49:19;13.80;;;8.10;;
54145;SDS011;65909;49.422;7.738;2023-04-06T11:51:45;13.23;;;7.95;;
54145;SDS011;65909;49.422;7.738;2023-04-06T11:54:11;14.40;;;8.73;;
54145;SDS011;65909;49.422;7.738;2023-04-06T11:56:37;15.50;;;8.25;;
54145;SDS011;65909;49.422;7.738;2023-04-06T11:59:03;12.50;;;8.40;;
54145;SDS011;65909;49.422;7.738;2023-04-06T12:01:29;13.60;;;7.88;;
54145;SDS011;65909;49.422;7.738;2023-04-06T12:03:55;13.50;;;7.63;;
54145;SDS011;65909;49.422;7.738;2023-04-06T12:06:20;13.10;;;8.88;;
54145;SDS011;65909;49.422;7.738;2023-04-06T12:08:46;13.20;;;8.13;;
54145;SDS011;65909;49.422;7.738;2023-04-06T12:11:11;13.50;;;7.95;;
54145;SDS011;65909;49.422;7.738;2023-04-06T12:13:37;16.70;;;9.02;;
54145;SDS011;65909;49.422;7.738;2023-04-06T12:16:02;12.32;;;8.90;;
54145;SDS011;65909;49.422;7.738;2023-04-06T12:18:29;14.40;;;8.30;;
54145;SDS011;65909;49.422;7.738;2023-04-06T12:20:55;10.63;;;7.30;;
54145;SDS011;65909;49.422;7.738;2023-04-06T12:23:20;12.30;;;8.27;;
54145;SDS011;65909;49.422;7.738;2023-04-06T12:25:45;11.70;;;8.43;;
54145;SDS011;65909;49.422;7.738;2023-04-06T12:28:11;12.00;;;7.30;;
54145;SDS011;65909;49.422;7.738;2023-04-06T12:30:36;13.88;;;7.50;;
54145;SDS011;65909;49.422;7.738;2023-04-06T12:33:02;13.05;;;8.25;;
54145;SDS011;65909;49.422;7.738;2023-04-06T12:35:28;13.52;;;7.80;;
54145;SDS011;65909;49.422;7.738;2023-04-06T12:37:53;16.55;;;9.13;;
54145;SDS011;65909;49.422;7.738;2023-04-06T12:40:19;17.20;;;8.25;;
54145;SDS011;65909;49.422;7.738;2023-04-06T12:42:45;12.48;;;8.50;;
54145;SDS011;65909;49.422;7.738;2023-04-06T12:45:11;13.25;;;7.93;;
54145;SDS011;65909;49.422;7.738;2023-04-06T12:47:36;15.90;;;9.05;;
54145;SDS011;65909;49.422;7.738;2023-04-06T12:50:04;13.93;;;8.18;;
54145;SDS011;65909;49.422;7.738;2023-04-06T12:52:31;10.65;;;6.82;;
54145;SDS011;65909;49.422;7.738;2023-04-06T12:54:57;14.25;;;8.75;;
54145;SDS011;65909;49.422;7.738;2023-04-06T12:57:24;15.68;;;7.80;;
54145;SDS011;65909;49.422;7.738;2023-04-06T12:59:50;13.82;;;7.70;;
54145;SDS011;65909;49.422;7.738;2023-04-06T13:02:16;10.95;;;6.78;;
54145;SDS011;65909;49.422;7.738;2023-04-06T13:04:42;12.52;;;6.85;;
54145;SDS011;65909;49.422;7.738;2023-04-06T13:07:07;9.60;;;6.30;;
54145;SDS011;65909;49.422;7.738;2023-04-06T13:09:33;12.45;;;6.70;;
54145;SDS011;65909;49.422;7.738;2023-04-06T13:11:58;11.23;;;6.72;;
54145;SDS011;65909;49.422;7.738;2023-04-06T13:14:23;10.52;;;6.80;;
54145;SDS011;65909;49.422;7.738;2023-04-06T13:16:49;12.85;;;7.28;;
54145;SDS011;65909;49.422;7.738;2023-04-06T13:19:14;9.55;;;6.45;;
54145;SDS011;65909;49.422;7.738;2023-04-06T13:21:40;12.15;;;7.43;;
54145;SDS011;65909;49.422;7.738;2023-04-06T13:24:06;11.98;;;6.95;;
54145;SDS011;65909;49.422;7.738;2023-04-06T13:26:31;11.75;;;7.10;;
54145;SDS011;65909;49.422;7.738;2023-04-06T13:28:56;9.52;;;6.70;;
54145;SDS011;65909;49.422;7.738;2023-04-06T13:31:22;11.35;;;6.45;;
54145;SDS011;65909;49.422;7.738;2023-04-06T13:33:47;9.45;;;6.30;;
54145;SDS011;65909;49.422;7.738;2023-04-06T13:36:13;10.55;;;6.57;;
54145;SDS011;65909;49.422;7.738;2023-04-06T13:38:38;10.30;;;7.05;;
54145;SDS011;65909;49.422;7.738;2023-04-06T13:41:04;9.07;;;6.22;;
54145;SDS011;65909;49.422;7.738;2023-04-06T13:43:30;10.23;;;6.63;;
54145;SDS011;65909;49.422;7.738;2023-04-06T13:45:56;11.93;;;6.75;;
54145;SDS011;65909;49.422;7.738;2023-04-06T13:48:24;12.40;;;7.15;;
54145;SDS011;65909;49.422;7.738;2023-04-06T13:50:50;10.10;;;5.97;;
54145;SDS011;65909;49.422;7.738;2023-04-06T13:53:16;14.05;;;6.70;;
54145;SDS011;65909;49.422;7.738;2023-04-06T13:55:42;10.27;;;6.60;;
54145;SDS011;65909;49.422;7.738;2023-04-06T13:58:07;11.40;;;7.20;;
54145;SDS011;65909;49.422;7.738;2023-04-06T14:00:32;12.20;;;6.57;;
54145;SDS011;65909;49.422;7.738;2023-04-06T14:02:58;12.30;;;6.47;;
54145;SDS011;65909;49.422;7.738;2023-04-06T14:05:23;11.55;;;6.03;;
54145;SDS011;65909;49.422;7.738;2023-04-06T14:07:49;9.85;;;6.05;;
54145;SDS011;65909;49.422;7.738;2023-04-06T14:10:15;11.15;;;6.72;;
54145;SDS011;65909;49.422;7.738;2023-04-06T14:12:41;9.02;;;6.18;;
54145;SDS011;65909;49.422;7.738;2023-04-06T14:15:08;10.85;;;6.13;;
54145;SDS011;65909;49.422;7.738;2023-04-06T14:17:34;9.88;;;5.88;;
54145;SDS011;65909;49.422;7.738;2023-04-06T14:19:59;8.07;;;5.63;;
54145;SDS011;65909;49.422;7.738;2023-04-06T14:22:24;11.60;;;6.32;;
54145;SDS011;65909;49.422;7.738;2023-04-06T14:24:51;10.85;;;7.63;;
54145;SDS011;65909;49.422;7.738;2023-04-06T14:27:16;12.43;;;8.02;;
54145;SDS011;65909;49.422;7.738;2023-04-06T14:29:41;11.75;;;6.78;;
54145;SDS011;65909;49.422;7.738;2023-04-06T14:32:07;9.20;;;6.38;;
54145;SDS011;65909;49.422;7.738;2023-04-06T14:34:32;9.52;;;5.95;;
54145;SDS011;65909;49.422;7.738;2023-04-06T14:36:57;11.48;;;5.97;;
54145;SDS011;65909;49.422;7.738;2023-04-06T14:39:23;8.75;;;6.07;;
54145;SDS011;65909;49.422;7.738;2023-04-06T14:41:49;8.50;;;5.90;;
54145;SDS011;65909;49.422;7.738;2023-04-06T14:44:15;9.40;;;6.05;;
54145;SDS011;65909;49.422;7.738;2023-04-06T14:46:41;12.07;;;6.05;;